Terminal Aerodrome Forecast
Issued by NWS Sterling, VA

Home | Current Version | Previous Version | Text Only | Print | Product List | Glossary On
Versions: 1 2 3 4 5 6 7 8 9 10 11 12 13 14 15 16 17 18 19 20 21 22 23 24 25 26
000
FTUS41 KLWX 260130 AAA
TAFBWI
TAF AMD
KBWI 260130Z 2602/2706 05010KT 2SM -DZ BR OVC004
     FM261100 36006KT 3SM BR OVC004
     FM261500 33005KT P6SM OVC008
     FM261800 33006KT P6SM OVC015
     FM262300 VRB03KT P6SM SCT025=

USA.gov is the U.S. government's official web portal to all federal, state and local government web resources and services.